createdAt,value
2018-07-31T00:04:54.516Z,37.17
2018-07-31T00:09:58.164Z,36.88
2018-07-31T00:15:01.624Z,36.93
2018-07-31T00:20:05.749Z,38.50
2018-07-31T00:25:09.281Z,38.05
2018-07-31T00:30:12.772Z,37.80
2018-07-31T00:35:16.378Z,37.29
2018-07-31T00:40:19.877Z,38.24
2018-07-31T00:45:23.559Z,38.18
2018-07-31T00:50:27.078Z,38.54
2018-07-31T00:55:30.533Z,38.65
2018-07-31T01:00:34.056Z,39.27
2018-07-31T01:05:38.033Z,38.87
2018-07-31T01:10:41.759Z,38.69
2018-07-31T01:15:45.373Z,38.68
2018-07-31T01:20:50.818Z,39.04
2018-07-31T01:25:54.345Z,39.06
2018-07-31T01:30:57.896Z,38.89
2018-07-31T01:36:01.887Z,39.60
2018-07-31T01:41:05.403Z,39.72
2018-07-31T01:46:09.025Z,38.67
2018-07-31T01:51:12.478Z,38.76
2018-07-31T01:56:15.962Z,38.88
2018-07-31T02:01:19.661Z,38.69
2018-07-31T02:06:26.529Z,38.21
2018-07-31T02:11:30.021Z,39.03
2018-07-31T02:16:33.498Z,39.08
2018-07-31T02:21:37.300Z,39.08
2018-07-31T02:26:41.037Z,38.73
2018-07-31T02:31:44.716Z,38.97
2018-07-31T02:36:48.198Z,39.00
2018-07-31T02:41:51.706Z,39.04
2018-07-31T02:46:55.371Z,38.50
2018-07-31T02:51:58.844Z,38.93
2018-07-31T02:57:02.534Z,38.87
2018-07-31T03:02:06.554Z,38.77
2018-07-31T03:07:10.043Z,38.92
2018-07-31T03:12:13.659Z,38.68
2018-07-31T03:17:17.418Z,39.08
2018-07-31T03:22:21.026Z,38.73
2018-07-31T03:27:25.675Z,38.90
2018-07-31T03:32:29.220Z,38.97
2018-07-31T03:37:32.762Z,38.97
2018-07-31T03:42:36.333Z,39.62
2018-07-31T03:47:39.813Z,39.71
2018-07-31T03:52:43.377Z,40.07
2018-07-31T03:57:47.095Z,40.14
2018-07-31T04:02:50.712Z,40.04
2018-07-31T04:07:54.229Z,40.94
2018-07-31T04:12:57.717Z,40.86
2018-07-31T04:18:01.341Z,41.56
2018-07-31T04:23:04.841Z,41.95
2018-07-31T04:28:08.273Z,42.82
2018-07-31T04:33:11.746Z,43.00
2018-07-31T04:38:15.369Z,42.85
2018-07-31T04:43:19.273Z,43.14
2018-07-31T04:48:22.813Z,42.57
2018-07-31T04:53:26.274Z,43.29
2018-07-31T04:58:29.897Z,43.25
2018-07-31T05:03:33.580Z,42.81
2018-07-31T05:08:37.033Z,41.98
2018-07-31T05:13:40.622Z,41.94
2018-07-31T05:18:44.089Z,42.06
2018-07-31T05:23:47.582Z,41.59
2018-07-31T05:28:51.057Z,41.60
2018-07-31T05:33:54.547Z,41.21
2018-07-31T05:38:58.081Z,41.51
2018-07-31T05:44:01.626Z,41.23
2018-07-31T05:49:05.633Z,41.01
2018-07-31T05:54:09.237Z,40.54
2018-07-31T05:59:13.014Z,39.58
2018-07-31T06:04:17.530Z,39.63
2018-07-31T06:09:20.969Z,39.39
2018-07-31T06:14:24.446Z,39.20
2018-07-31T06:19:27.937Z,39.55
2018-07-31T06:24:31.542Z,39.20
2018-07-31T06:29:35.175Z,40.56
2018-07-31T06:34:38.680Z,40.82
2018-07-31T06:39:42.292Z,40.79
2018-07-31T06:44:45.957Z,40.54
2018-07-31T06:49:49.729Z,40.86
2018-07-31T06:54:53.941Z,41.09
2018-07-31T06:59:57.453Z,41.12
2018-07-31T07:05:00.966Z,41.43
2018-07-31T07:10:05.057Z,41.05
2018-07-31T07:15:08.612Z,41.57
2018-07-31T07:20:12.158Z,41.51
2018-07-31T07:25:15.634Z,41.55
2018-07-31T07:30:19.226Z,41.75
2018-07-31T07:35:22.949Z,41.26
2018-07-31T07:40:26.557Z,41.88
2018-07-31T07:45:30.036Z,41.70
2018-07-31T07:50:34.110Z,41.99
2018-07-31T07:55:37.752Z,41.63
2018-07-31T08:00:42.034Z,42.08
2018-07-31T08:05:45.699Z,41.93
2018-07-31T08:10:49.609Z,42.15
2018-07-31T08:15:53.176Z,42.03
2018-07-31T08:20:56.842Z,41.86
2018-07-31T08:26:00.689Z,42.37
2018-07-31T08:31:04.236Z,41.91
2018-07-31T08:36:08.220Z,42.19
2018-07-31T08:41:11.765Z,42.33
2018-07-31T08:46:15.273Z,42.56
2018-07-31T08:51:18.879Z,42.58
2018-07-31T08:56:22.361Z,42.78
2018-07-31T09:01:26.067Z,42.58
2018-07-31T09:06:29.811Z,43.03
2018-07-31T09:11:33.276Z,43.13
2018-07-31T09:16:37.084Z,43.49
2018-07-31T09:21:40.665Z,44.87
2018-07-31T09:26:44.110Z,44.78
2018-07-31T09:31:47.593Z,45.29
2018-07-31T09:36:51.116Z,45.33
2018-07-31T09:41:54.612Z,44.98
2018-07-31T09:46:58.447Z,44.84
2018-07-31T09:52:01.936Z,45.50
2018-07-31T09:57:05.592Z,45.43
2018-07-31T10:02:09.112Z,45.66
2018-07-31T10:07:12.824Z,45.10
2018-07-31T10:12:16.421Z,44.96
2018-07-31T10:17:19.966Z,44.66
2018-07-31T10:22:23.513Z,44.64
2018-07-31T10:27:27.360Z,44.88
2018-07-31T10:32:31.333Z,44.86
2018-07-31T10:37:34.864Z,45.08
2018-07-31T10:42:38.438Z,45.03
2018-07-31T10:47:41.886Z,45.18
2018-07-31T10:52:45.324Z,45.31
2018-07-31T10:57:48.902Z,45.67
2018-07-31T11:02:52.567Z,45.69
2018-07-31T11:07:56.121Z,45.98
2018-07-31T11:12:59.615Z,45.62
2018-07-31T11:18:03.145Z,45.42
2018-07-31T11:23:06.889Z,45.52
2018-07-31T11:28:10.713Z,45.33
2018-07-31T11:33:14.932Z,45.49
2018-07-31T11:38:18.459Z,45.08
2018-07-31T11:43:22.489Z,45.13
2018-07-31T11:48:26.101Z,44.77
2018-07-31T11:53:29.606Z,44.89
2018-07-31T11:58:33.213Z,45.33
2018-07-31T12:03:36.856Z,44.86
2018-07-31T12:08:40.342Z,45.53
2018-07-31T12:13:43.887Z,45.07
2018-07-31T12:18:47.335Z,45.41
2018-07-31T12:23:50.794Z,45.67
2018-07-31T12:28:54.436Z,45.50
2018-07-31T12:33:58.192Z,45.96
2018-07-31T12:39:01.777Z,45.31
2018-07-31T12:44:05.687Z,45.72
2018-07-31T12:49:09.384Z,45.96
2018-07-31T12:54:12.922Z,45.78
2018-07-31T12:59:16.385Z,45.81
2018-07-31T13:04:20.129Z,46.16
2018-07-31T13:09:23.893Z,46.41
2018-07-31T13:14:27.499Z,45.62
2018-07-31T13:19:31.433Z,46.84
2018-07-31T13:24:35.049Z,46.59
2018-07-31T13:29:38.707Z,46.88
2018-07-31T13:34:42.181Z,46.51
2018-07-31T13:39:45.763Z,46.03
2018-07-31T13:44:49.758Z,47.40
2018-07-31T13:49:54.056Z,47.49
2018-07-31T13:54:57.703Z,47.18
2018-07-31T14:00:01.259Z,47.18
2018-07-31T14:05:05.162Z,47.20
2018-07-31T14:10:09.247Z,46.94
2018-07-31T14:15:12.869Z,46.78
2018-07-31T14:20:16.613Z,46.45
2018-07-31T14:25:21.228Z,46.57
2018-07-31T14:30:25.078Z,46.83
2018-07-31T14:35:29.022Z,46.78
2018-07-31T14:40:32.585Z,46.86
2018-07-31T14:45:36.112Z,46.50
2018-07-31T14:50:39.868Z,46.76
2018-07-31T14:55:43.444Z,46.89
2018-07-31T15:00:47.105Z,46.86
2018-07-31T15:05:50.594Z,46.45
2018-07-31T15:27:17.633Z,47.11
2018-07-31T15:32:21.480Z,47.05
2018-07-31T15:37:25.029Z,46.85
2018-07-31T15:42:28.781Z,46.97
2018-07-31T15:47:32.465Z,47.23
2018-07-31T15:52:36.329Z,46.86
2018-07-31T15:57:39.853Z,47.10
2018-07-31T16:02:43.329Z,46.52
2018-07-31T16:07:46.884Z,46.73
2018-07-31T16:12:50.490Z,46.75
2018-07-31T16:17:54.045Z,46.67
2018-07-31T16:22:57.561Z,46.93
2018-07-31T16:28:01.069Z,47.20
2018-07-31T16:33:04.814Z,46.74
2018-07-31T16:38:08.716Z,47.44
2018-07-31T16:43:12.509Z,47.49
2018-07-31T16:48:16.389Z,47.12
2018-07-31T16:53:20.079Z,47.02
2018-07-31T16:58:23.660Z,47.54
2018-07-31T17:03:28.036Z,46.94
2018-07-31T17:08:31.701Z,47.23
2018-07-31T17:13:35.681Z,47.51
2018-07-31T17:18:39.161Z,47.40
2018-07-31T17:23:42.914Z,47.68
2018-07-31T17:28:46.740Z,47.66
2018-07-31T17:33:50.533Z,47.85
2018-07-31T17:38:54.081Z,47.24
2018-07-31T17:43:57.645Z,47.37
2018-07-31T17:49:01.305Z,47.75
2018-07-31T17:54:05.166Z,48.23
2018-07-31T17:59:08.937Z,48.14
2018-07-31T18:04:12.777Z,48.07
2018-07-31T18:09:16.361Z,47.66
2018-07-31T18:14:19.900Z,47.77
2018-07-31T18:19:23.487Z,47.76
2018-07-31T18:24:27.014Z,47.64
2018-07-31T18:29:30.862Z,48.23
2018-07-31T18:34:34.635Z,47.81
2018-07-31T18:39:38.398Z,48.19
2018-07-31T18:44:42.352Z,48.16
2018-07-31T18:49:46.245Z,47.95
2018-07-31T18:54:49.972Z,47.76
2018-07-31T18:59:54.152Z,47.66
2018-07-31T19:04:57.707Z,47.84
2018-07-31T19:10:01.450Z,47.89
2018-07-31T19:15:05.586Z,47.57
2018-07-31T19:20:09.286Z,47.52
2018-07-31T19:25:12.840Z,47.99
2018-07-31T19:30:16.372Z,47.36
2018-07-31T19:35:19.814Z,47.63
2018-07-31T19:40:23.823Z,48.05
2018-07-31T19:45:27.461Z,47.14
2018-07-31T19:50:30.982Z,46.32
2018-07-31T19:55:34.611Z,46.85
2018-07-31T20:00:38.360Z,46.43
2018-07-31T20:05:42.070Z,47.14
2018-07-31T20:10:45.889Z,46.80
2018-07-31T20:15:49.597Z,47.10
2018-07-31T20:20:53.151Z,46.17
2018-07-31T20:25:56.820Z,45.45
2018-07-31T20:31:00.545Z,46.18
2018-07-31T20:36:04.141Z,46.37
2018-07-31T20:41:08.011Z,45.05
2018-07-31T20:46:12.245Z,46.17
2018-07-31T20:51:16.588Z,45.70
2018-07-31T21:12:43.906Z,45.53
2018-07-31T21:17:48.634Z,45.36
2018-07-31T21:22:52.839Z,45.96
2018-07-31T21:27:56.373Z,44.89
2018-07-31T21:32:59.921Z,45.14
2018-07-31T21:38:03.729Z,44.75
2018-07-31T21:43:07.338Z,44.32
2018-07-31T21:48:11.025Z,43.85
2018-07-31T21:53:14.482Z,44.27
2018-07-31T21:58:18.009Z,43.71
2018-07-31T22:03:21.883Z,43.88
2018-07-31T22:08:25.703Z,43.96
2018-07-31T22:13:30.301Z,44.50
2018-07-31T22:18:34.159Z,43.64
2018-07-31T22:23:37.658Z,43.55
2018-07-31T22:28:43.373Z,43.87
2018-07-31T22:33:47.021Z,43.75
2018-07-31T22:38:50.512Z,43.72
2018-07-31T22:43:54.090Z,44.25
2018-07-31T22:48:57.611Z,44.10
2018-07-31T22:54:01.130Z,43.67
2018-07-31T22:59:05.558Z,43.51
2018-07-31T23:04:09.386Z,43.24
2018-07-31T23:09:13.245Z,43.16
2018-07-31T23:14:16.748Z,44.38
2018-07-31T23:19:20.271Z,43.76
2018-07-31T23:24:23.861Z,44.02
2018-07-31T23:29:27.773Z,43.28
2018-07-31T23:34:31.250Z,43.16
2018-07-31T23:39:34.697Z,43.36
2018-07-31T23:44:38.417Z,43.57
2018-07-31T23:49:41.889Z,43.25
2018-07-31T23:54:45.567Z,42.71
2018-07-31T23:59:49.286Z,41.53
